createdAt,value
2023-08-16T00:01:31.445Z,8.80
2023-08-16T00:03:59.019Z,9.23
2023-08-16T00:06:26.159Z,9.32
2023-08-16T00:09:00.887Z,9.15
2023-08-16T00:11:28.098Z,9.38
2023-08-16T00:13:55.182Z,9.55
2023-08-16T00:16:22.212Z,9.02
2023-08-16T00:18:49.404Z,9.35
2023-08-16T00:21:16.271Z,9.20
2023-08-16T00:23:43.386Z,9.48
2023-08-16T00:26:10.292Z,10.25
2023-08-16T00:28:37.303Z,8.98
2023-08-16T00:31:04.221Z,9.93
2023-08-16T00:33:31.334Z,9.68
2023-08-16T00:35:58.181Z,10.02
2023-08-16T00:38:25.527Z,10.10
2023-08-16T00:40:52.616Z,9.43
2023-08-16T00:43:20.076Z,9.43
2023-08-16T00:45:49.256Z,10.70
2023-08-16T00:48:17.868Z,9.20
2023-08-16T00:50:46.037Z,9.85
2023-08-16T00:53:14.959Z,9.48
2023-08-16T00:55:41.830Z,10.30
2023-08-16T00:58:09.081Z,9.43
2023-08-16T01:00:36.068Z,8.82
2023-08-16T01:03:02.926Z,9.40
2023-08-16T01:05:30.581Z,9.60
2023-08-16T01:07:57.888Z,9.50
2023-08-16T01:10:33.868Z,9.90
2023-08-16T01:13:10.307Z,10.30
2023-08-16T01:15:42.037Z,9.90
2023-08-16T01:18:10.874Z,9.20
2023-08-16T01:20:38.567Z,9.48
2023-08-16T01:23:08.018Z,9.63
2023-08-16T01:26:07.972Z,9.60
2023-08-16T01:28:38.838Z,8.98
2023-08-16T01:31:06.514Z,9.55
2023-08-16T01:33:33.364Z,9.52
2023-08-16T01:36:00.432Z,9.60
2023-08-16T01:38:27.681Z,9.63
2023-08-16T01:41:00.702Z,10.65
2023-08-16T01:43:28.980Z,9.98
2023-08-16T01:45:57.101Z,10.45
2023-08-16T01:48:25.019Z,9.85
2023-08-16T01:50:52.788Z,11.07
2023-08-16T01:53:20.381Z,10.32
2023-08-16T01:55:48.239Z,9.88
2023-08-16T01:58:15.168Z,10.82
2023-08-16T02:00:42.647Z,10.77
2023-08-16T02:03:09.626Z,10.38
2023-08-16T02:05:37.020Z,10.05
2023-08-16T02:08:04.139Z,10.43
2023-08-16T02:10:31.352Z,10.07
2023-08-16T02:12:58.146Z,10.25
2023-08-16T02:15:26.594Z,10.00
2023-08-16T02:17:53.637Z,10.23
2023-08-16T02:20:21.249Z,10.27
2023-08-16T02:22:48.197Z,11.15
2023-08-16T02:25:15.543Z,10.18
2023-08-16T02:27:42.389Z,9.73
2023-08-16T02:30:10.894Z,9.23
2023-08-16T02:32:38.126Z,9.52
2023-08-16T02:35:05.476Z,10.43
2023-08-16T02:37:32.242Z,9.65
2023-08-16T02:39:59.394Z,11.30
2023-08-16T02:42:26.234Z,10.70
2023-08-16T02:44:53.376Z,10.65
2023-08-16T02:47:20.174Z,10.60
2023-08-16T02:49:47.604Z,9.98
2023-08-16T02:52:14.551Z,10.52
2023-08-16T02:54:42.682Z,10.02
2023-08-16T02:57:09.499Z,9.77
2023-08-16T02:59:47.291Z,9.82
2023-08-16T03:02:15.273Z,10.10
2023-08-16T03:04:42.360Z,9.73
2023-08-16T03:07:10.502Z,10.45
2023-08-16T03:09:39.107Z,9.90
2023-08-16T03:12:06.919Z,10.23
2023-08-16T03:14:34.293Z,9.38
2023-08-16T03:17:01.429Z,10.02
2023-08-16T03:19:28.526Z,10.43
2023-08-16T03:21:57.633Z,10.38
2023-08-16T03:24:24.997Z,10.52
2023-08-16T03:26:52.197Z,10.50
2023-08-16T03:29:19.766Z,9.77
2023-08-16T03:31:47.653Z,10.27
2023-08-16T03:34:15.284Z,10.55
2023-08-16T03:36:42.303Z,10.30
2023-08-16T03:39:09.590Z,10.45
2023-08-16T03:41:38.413Z,9.98
2023-08-16T03:44:07.652Z,9.65
2023-08-16T03:46:37.706Z,9.75
2023-08-16T03:49:04.949Z,9.98
2023-08-16T03:51:32.786Z,10.70
2023-08-16T03:53:59.979Z,9.90
2023-08-16T03:56:26.912Z,10.27
2023-08-16T03:58:54.109Z,9.65
2023-08-16T04:01:21.083Z,10.35
2023-08-16T04:03:48.628Z,10.82
2023-08-16T04:06:16.837Z,10.13
2023-08-16T04:08:43.984Z,9.98
2023-08-16T04:11:10.850Z,10.00
2023-08-16T04:13:38.718Z,9.82
2023-08-16T04:16:05.827Z,10.30
2023-08-16T04:18:33.405Z,10.32
2023-08-16T04:21:01.656Z,10.98
2023-08-16T04:23:29.306Z,10.45
2023-08-16T04:25:56.458Z,10.10
2023-08-16T04:28:23.806Z,10.32
2023-08-16T04:30:50.721Z,10.30
2023-08-16T04:33:17.966Z,9.90
2023-08-16T04:35:44.984Z,10.55
2023-08-16T04:38:12.320Z,10.15
2023-08-16T04:40:39.123Z,10.25
2023-08-16T04:43:06.282Z,10.57
2023-08-16T04:45:33.358Z,10.65
2023-08-16T04:48:00.920Z,10.95
2023-08-16T04:50:28.062Z,11.60
2023-08-16T04:52:55.227Z,12.13
2023-08-16T04:55:22.234Z,12.23
2023-08-16T04:57:49.726Z,12.13
2023-08-16T05:00:17.052Z,11.77
2023-08-16T05:02:46.519Z,11.98
2023-08-16T05:05:13.834Z,12.02
2023-08-16T05:07:41.081Z,11.73
2023-08-16T05:10:08.265Z,11.90
2023-08-16T05:12:35.316Z,13.32
2023-08-16T05:15:02.070Z,12.05
2023-08-16T05:17:29.104Z,12.55
2023-08-16T05:19:55.964Z,12.23
2023-08-16T05:22:26.083Z,12.23
2023-08-16T05:24:53.015Z,12.05
2023-08-16T05:27:20.269Z,12.05
2023-08-16T05:29:48.211Z,12.63
2023-08-16T05:32:15.513Z,12.52
2023-08-16T05:34:42.570Z,12.40
2023-08-16T05:37:10.732Z,12.00
2023-08-16T05:39:37.626Z,12.18
2023-08-16T05:42:05.008Z,12.30
2023-08-16T05:44:31.925Z,11.80
2023-08-16T05:46:59.103Z,12.55
2023-08-16T05:49:25.956Z,12.43
2023-08-16T05:51:53.007Z,11.85
2023-08-16T05:54:19.912Z,12.77
2023-08-16T05:56:47.225Z,12.13
2023-08-16T05:59:14.315Z,13.13
2023-08-16T06:01:41.680Z,13.57
2023-08-16T06:04:08.497Z,12.73
2023-08-16T06:06:35.759Z,12.50
2023-08-16T06:09:02.556Z,12.90
2023-08-16T06:11:29.770Z,12.40
2023-08-16T06:13:56.576Z,12.85
2023-08-16T06:16:24.085Z,13.02
2023-08-16T06:18:53.825Z,12.95
2023-08-16T06:21:21.076Z,12.77
2023-08-16T06:23:49.160Z,13.35
2023-08-16T06:26:16.376Z,12.57
2023-08-16T06:28:43.381Z,12.52
2023-08-16T06:31:10.554Z,12.90
2023-08-16T06:33:38.402Z,13.02
2023-08-16T06:36:05.995Z,14.27
2023-08-16T06:38:35.322Z,13.20
2023-08-16T06:41:03.469Z,14.15
2023-08-16T06:43:30.338Z,13.13
2023-08-16T06:46:07.755Z,14.57
2023-08-16T06:48:41.440Z,13.20
2023-08-16T06:53:52.077Z,12.45
2023-08-16T06:56:19.423Z,11.93
2023-08-16T06:58:46.463Z,12.73
2023-08-16T07:01:13.691Z,12.63
2023-08-16T07:03:40.841Z,10.95
2023-08-16T07:06:08.131Z,10.65
2023-08-16T07:08:34.979Z,10.40
2023-08-16T07:11:02.156Z,10.77
2023-08-16T07:13:28.994Z,10.35
2023-08-16T07:15:56.154Z,10.82
2023-08-16T07:18:24.909Z,10.10
2023-08-16T07:20:52.453Z,10.57
2023-08-16T07:23:19.193Z,10.02
2023-08-16T07:25:46.414Z,10.05
2023-08-16T07:28:13.331Z,9.77
2023-08-16T07:30:40.550Z,9.23
2023-08-16T07:33:07.519Z,8.20
2023-08-16T07:35:34.709Z,9.00
2023-08-16T07:38:03.942Z,8.90
2023-08-16T07:40:31.543Z,9.05
2023-08-16T07:42:58.389Z,9.10
2023-08-16T07:45:25.602Z,7.85
2023-08-16T07:47:52.875Z,8.35
2023-08-16T07:50:20.612Z,9.02
2023-08-16T07:52:47.612Z,8.60
2023-08-16T07:55:14.831Z,9.35
2023-08-16T07:57:41.721Z,8.25
2023-08-16T08:00:13.285Z,8.73
2023-08-16T08:02:55.390Z,8.60
2023-08-16T08:05:25.383Z,8.23
2023-08-16T08:07:55.259Z,8.38
2023-08-16T08:10:22.563Z,7.90
2023-08-16T08:12:49.419Z,7.93
2023-08-16T08:15:16.704Z,7.53
2023-08-16T08:17:43.631Z,7.97
2023-08-16T08:20:12.148Z,8.20
2023-08-16T08:22:39.177Z,7.88
2023-08-16T08:25:07.122Z,8.15
2023-08-16T08:27:34.002Z,7.95
2023-08-16T08:30:02.682Z,7.85
2023-08-16T08:32:29.858Z,7.78
2023-08-16T08:34:57.235Z,8.43
2023-08-16T08:37:24.148Z,8.02
2023-08-16T08:39:51.257Z,8.20
2023-08-16T08:42:18.287Z,8.38
2023-08-16T08:44:46.081Z,8.05
2023-08-16T08:47:17.270Z,8.65
2023-08-16T08:49:45.852Z,8.40
2023-08-16T08:52:14.393Z,7.95
2023-08-16T08:54:41.665Z,8.05
2023-08-16T08:57:09.718Z,8.38
2023-08-16T08:59:40.384Z,7.38
2023-08-16T09:02:08.576Z,7.60
2023-08-16T09:04:36.166Z,7.80
2023-08-16T09:07:08.529Z,8.38
2023-08-16T09:09:36.310Z,7.82
2023-08-16T09:12:03.277Z,7.60
2023-08-16T09:14:31.681Z,8.00
2023-08-16T09:16:58.881Z,7.82
2023-08-16T09:19:26.134Z,8.07
2023-08-16T09:21:53.331Z,8.48
2023-08-16T09:24:29.739Z,8.23
2023-08-16T09:27:01.557Z,8.70
2023-08-16T09:29:32.061Z,8.70
2023-08-16T09:31:59.044Z,8.30
2023-08-16T09:37:04.401Z,8.25
2023-08-16T09:39:31.854Z,7.40
2023-08-16T09:41:58.789Z,7.80
2023-08-16T09:44:30.667Z,8.95
2023-08-16T09:52:14.644Z,7.05
2023-08-16T09:54:41.929Z,7.65
2023-08-16T09:59:57.251Z,7.25
2023-08-16T10:05:05.079Z,7.78
2023-08-16T10:07:33.032Z,8.27
2023-08-16T10:10:01.068Z,8.27
2023-08-16T10:12:28.942Z,7.65
2023-08-16T10:14:56.190Z,7.97
2023-08-16T10:17:23.452Z,7.25
2023-08-16T10:19:57.969Z,8.02
2023-08-16T10:22:35.591Z,8.05
2023-08-16T10:25:08.362Z,7.78
2023-08-16T10:27:41.234Z,8.13
2023-08-16T10:30:13.730Z,8.23
2023-08-16T10:32:43.543Z,8.32
2023-08-16T10:35:11.694Z,8.85
2023-08-16T10:37:40.362Z,8.65
2023-08-16T10:43:05.836Z,8.93
2023-08-16T10:48:19.376Z,8.80
2023-08-16T10:50:56.055Z,8.82
2023-08-16T10:56:02.406Z,8.32
2023-08-16T10:58:29.888Z,8.70
2023-08-16T11:01:01.379Z,8.07
2023-08-16T11:03:47.404Z,8.57
2023-08-16T11:06:16.036Z,8.90
2023-08-16T11:08:44.882Z,8.48
2023-08-16T11:11:15.306Z,8.15
2023-08-16T11:13:43.043Z,8.30
2023-08-16T11:16:12.292Z,9.65
2023-08-16T11:18:43.404Z,8.20
2023-08-16T11:21:18.137Z,7.95
2023-08-16T11:23:45.261Z,7.95
2023-08-16T11:26:13.153Z,7.82
2023-08-16T11:28:41.871Z,8.02
2023-08-16T11:31:10.361Z,8.65
2023-08-16T11:33:41.111Z,8.13
2023-08-16T11:36:10.141Z,7.38
2023-08-16T11:38:37.285Z,8.00
2023-08-16T11:41:04.752Z,8.43
2023-08-16T11:43:36.963Z,7.43
2023-08-16T11:46:05.717Z,8.43
2023-08-16T11:48:36.243Z,7.90
2023-08-16T11:51:04.083Z,7.85
2023-08-16T11:53:36.157Z,7.68
2023-08-16T11:56:11.090Z,8.25
2023-08-16T11:58:45.717Z,7.82
2023-08-16T12:01:16.619Z,7.57
2023-08-16T12:03:44.901Z,7.40
2023-08-16T12:06:12.642Z,7.88
2023-08-16T12:08:53.327Z,7.82
2023-08-16T12:11:32.458Z,7.90
2023-08-16T12:14:00.343Z,7.55
2023-08-16T12:16:27.930Z,7.88
2023-08-16T12:18:57.656Z,7.93
2023-08-16T12:21:35.562Z,7.88
2023-08-16T12:24:02.986Z,7.18
2023-08-16T12:26:30.235Z,7.57
2023-08-16T12:28:57.913Z,7.75
2023-08-16T12:31:25.096Z,7.70
2023-08-16T12:33:52.131Z,8.23
2023-08-16T12:36:19.631Z,7.97
2023-08-16T12:38:46.620Z,7.95
2023-08-16T12:41:13.850Z,8.40
2023-08-16T12:43:43.096Z,7.93
2023-08-16T12:46:11.285Z,8.10
2023-08-16T12:48:38.682Z,8.13
2023-08-16T12:51:16.107Z,7.72
2023-08-16T12:53:45.402Z,7.80
2023-08-16T12:56:14.014Z,7.82
2023-08-16T13:01:19.023Z,8.27
2023-08-16T13:06:30.682Z,7.93
2023-08-16T13:11:34.014Z,7.90
2023-08-16T13:14:07.185Z,8.18
2023-08-16T13:16:44.642Z,8.90
2023-08-16T13:19:24.825Z,7.97
2023-08-16T13:22:15.598Z,7.90
2023-08-16T13:24:57.987Z,8.75
2023-08-16T13:27:40.938Z,8.75
2023-08-16T13:30:46.552Z,8.30
2023-08-16T13:33:09.375Z,7.90
2023-08-16T13:38:17.437Z,7.90
2023-08-16T13:46:18.930Z,7.82
2023-08-16T13:48:48.928Z,8.10
2023-08-16T13:51:16.077Z,10.18
2023-08-16T13:53:43.618Z,8.57
2023-08-16T13:56:10.771Z,8.55
2023-08-16T13:58:37.873Z,8.63
2023-08-16T14:01:04.725Z,8.68
2023-08-16T14:03:31.861Z,8.23
2023-08-16T14:06:02.984Z,8.38
2023-08-16T14:08:30.576Z,8.88
2023-08-16T14:11:02.233Z,9.07
2023-08-16T14:13:31.137Z,8.95
2023-08-16T14:16:02.566Z,9.07
2023-08-16T14:18:30.003Z,8.75
2023-08-16T14:20:56.944Z,8.82
2023-08-16T14:23:24.172Z,8.68
2023-08-16T14:25:52.745Z,8.07
2023-08-16T14:28:24.561Z,8.77
2023-08-16T14:30:52.126Z,9.40
2023-08-16T14:33:31.555Z,9.43
2023-08-16T14:35:58.480Z,9.00
2023-08-16T14:38:25.641Z,8.82
2023-08-16T14:40:52.422Z,9.05
2023-08-16T14:43:19.638Z,8.70
2023-08-16T14:45:46.517Z,8.80
2023-08-16T14:48:13.808Z,8.98
2023-08-16T14:50:40.694Z,8.60
2023-08-16T14:53:07.801Z,9.13
2023-08-16T14:55:34.753Z,8.52
2023-08-16T14:58:04.333Z,8.32
2023-08-16T15:00:32.441Z,9.27
2023-08-16T15:03:01.059Z,9.32
2023-08-16T15:05:30.944Z,8.90
2023-08-16T15:08:00.477Z,8.98
2023-08-16T15:10:27.270Z,9.55
2023-08-16T15:12:57.865Z,9.50
2023-08-16T15:15:24.984Z,9.32
2023-08-16T15:17:52.070Z,9.40
2023-08-16T15:20:19.287Z,9.00
2023-08-16T15:22:46.457Z,9.40
2023-08-16T15:25:13.672Z,8.88
2023-08-16T15:27:40.821Z,8.88
2023-08-16T15:30:09.273Z,8.63
2023-08-16T15:32:36.734Z,8.68
2023-08-16T15:35:04.953Z,9.90
2023-08-16T15:37:35.314Z,9.30
2023-08-16T15:40:02.223Z,8.77
2023-08-16T15:42:29.594Z,9.75
2023-08-16T15:44:56.484Z,9.57
2023-08-16T15:47:23.862Z,9.70
2023-08-16T15:49:51.007Z,9.77
2023-08-16T15:52:18.097Z,9.57
2023-08-16T15:54:44.928Z,9.25
2023-08-16T15:57:11.994Z,10.45
2023-08-16T15:59:47.869Z,10.20
2023-08-16T16:02:16.563Z,9.63
2023-08-16T16:04:44.595Z,9.63
2023-08-16T16:07:11.736Z,10.15
2023-08-16T16:09:38.733Z,10.00
2023-08-16T16:12:05.974Z,9.43
2023-08-16T16:14:32.856Z,9.85
2023-08-16T16:17:29.251Z,9.70
2023-08-16T16:19:56.691Z,10.10
2023-08-16T16:22:24.148Z,10.65
2023-08-16T16:24:51.142Z,10.25
2023-08-16T16:27:18.342Z,11.05
2023-08-16T16:29:45.262Z,28.27
2023-08-16T16:32:12.427Z,106.53
2023-08-16T16:34:39.885Z,43.58
2023-08-16T16:37:07.182Z,82.10
2023-08-16T16:39:34.251Z,59.17
2023-08-16T16:42:02.748Z,38.47
2023-08-16T16:44:29.941Z,160.95
2023-08-16T16:46:57.149Z,90.82
2023-08-16T16:49:24.486Z,57.88
2023-08-16T16:51:52.868Z,32.05
2023-08-16T16:54:19.698Z,26.95
2023-08-16T16:56:46.903Z,15.60
2023-08-16T16:59:13.732Z,20.65
2023-08-16T17:01:41.123Z,19.65
2023-08-16T17:04:08.035Z,60.67
2023-08-16T17:06:35.233Z,29.95
2023-08-16T17:09:03.238Z,50.67
2023-08-16T17:11:30.431Z,11.98
2023-08-16T17:13:58.077Z,17.73
2023-08-16T17:16:25.256Z,11.18
2023-08-16T17:18:52.272Z,27.25
2023-08-16T17:21:19.333Z,28.83
2023-08-16T17:23:46.939Z,24.60
2023-08-16T17:26:15.032Z,26.67
2023-08-16T17:28:42.339Z,57.75
2023-08-16T17:31:12.224Z,30.10
2023-08-16T17:33:40.601Z,13.40
2023-08-16T17:36:30.002Z,15.52
2023-08-16T17:38:57.063Z,12.43
2023-08-16T17:41:25.013Z,12.05
2023-08-16T17:43:53.188Z,12.52
2023-08-16T17:46:40.400Z,12.00
2023-08-16T17:49:07.523Z,11.20
2023-08-16T17:51:34.923Z,12.85
2023-08-16T17:54:01.933Z,11.82
2023-08-16T17:56:29.067Z,11.65
2023-08-16T17:58:56.006Z,11.68
2023-08-16T18:01:23.336Z,11.50
2023-08-16T18:03:50.478Z,12.13
2023-08-16T18:06:17.633Z,11.43
2023-08-16T18:08:46.088Z,11.52
2023-08-16T18:11:13.733Z,10.77
2023-08-16T18:13:42.213Z,11.32
2023-08-16T18:16:09.568Z,10.52
2023-08-16T18:18:45.479Z,10.57
2023-08-16T18:21:12.732Z,10.95
2023-08-16T18:23:39.819Z,10.75
2023-08-16T18:26:08.335Z,10.30
2023-08-16T18:28:35.176Z,9.88
2023-08-16T18:31:02.836Z,10.27
2023-08-16T18:33:29.797Z,11.07
2023-08-16T18:35:57.013Z,9.68
2023-08-16T18:38:23.908Z,10.05
2023-08-16T18:40:51.167Z,9.95
2023-08-16T18:43:19.391Z,10.27
2023-08-16T18:45:48.087Z,10.35
2023-08-16T18:48:15.931Z,10.07
2023-08-16T18:50:43.074Z,10.80
2023-08-16T18:53:09.906Z,9.82
2023-08-16T18:55:41.814Z,10.77
2023-08-16T18:58:08.807Z,11.13
2023-08-16T19:00:36.125Z,10.32
2023-08-16T19:03:03.268Z,10.63
2023-08-16T19:05:30.723Z,10.88
2023-08-16T19:07:57.640Z,10.77
2023-08-16T19:10:25.259Z,11.10
2023-08-16T19:12:52.158Z,12.30
2023-08-16T19:15:19.299Z,11.38
2023-08-16T19:17:46.160Z,11.55
2023-08-16T19:20:13.377Z,11.35
2023-08-16T19:22:40.335Z,11.80
2023-08-16T19:25:08.033Z,11.15
2023-08-16T19:27:34.853Z,11.20
2023-08-16T19:30:04.595Z,10.82
2023-08-16T19:32:31.585Z,10.82
2023-08-16T19:34:58.757Z,10.93
2023-08-16T19:37:25.801Z,11.40
2023-08-16T19:39:53.371Z,10.48
2023-08-16T19:42:20.326Z,11.07
2023-08-16T19:44:47.553Z,10.55
2023-08-16T19:47:14.470Z,10.60
2023-08-16T19:49:46.128Z,11.07
2023-08-16T19:52:13.093Z,10.95
2023-08-16T19:54:40.463Z,11.50
2023-08-16T19:57:07.250Z,10.90
2023-08-16T19:59:34.519Z,11.35
2023-08-16T20:02:01.872Z,11.63
2023-08-16T20:04:29.043Z,10.73
2023-08-16T20:06:57.097Z,11.30
2023-08-16T20:09:24.406Z,11.20
2023-08-16T20:11:51.357Z,11.52
2023-08-16T20:14:18.552Z,11.32
2023-08-16T20:16:45.566Z,11.00
2023-08-16T20:19:13.036Z,11.25
2023-08-16T20:21:39.934Z,10.63
2023-08-16T20:24:09.380Z,10.73
2023-08-16T20:26:36.329Z,10.57
2023-08-16T20:29:03.492Z,11.27
2023-08-16T20:31:32.007Z,11.23
2023-08-16T20:33:59.259Z,10.98
2023-08-16T20:36:26.125Z,11.15
2023-08-16T20:38:53.245Z,11.00
2023-08-16T20:41:20.057Z,10.25
2023-08-16T20:43:49.580Z,10.52
2023-08-16T20:46:18.543Z,11.18
2023-08-16T20:48:46.324Z,10.98
2023-08-16T20:51:13.102Z,10.95
2023-08-16T20:53:44.243Z,10.77
2023-08-16T20:56:11.040Z,11.30
2023-08-16T20:58:38.197Z,10.65
2023-08-16T21:01:05.150Z,10.70
2023-08-16T21:03:32.277Z,10.82
2023-08-16T21:05:59.253Z,11.00
2023-08-16T21:08:26.464Z,11.70
2023-08-16T21:10:53.230Z,11.27
2023-08-16T21:13:21.589Z,11.05
2023-08-16T21:15:48.458Z,10.77
2023-08-16T21:18:15.662Z,11.27
2023-08-16T21:20:42.664Z,10.95
2023-08-16T21:23:09.760Z,10.90
2023-08-16T21:25:36.791Z,11.60
2023-08-16T21:28:04.323Z,12.70
2023-08-16T21:30:31.363Z,11.45
2023-08-16T21:32:58.678Z,12.48
2023-08-16T21:35:26.178Z,12.13
2023-08-16T21:37:53.588Z,12.02
2023-08-16T21:40:20.359Z,12.57
2023-08-16T21:42:47.557Z,11.68
2023-08-16T21:45:14.569Z,11.73
2023-08-16T21:47:41.714Z,11.60
2023-08-16T21:50:09.247Z,12.75
2023-08-16T21:52:36.608Z,11.80
2023-08-16T21:55:03.814Z,12.25
2023-08-16T21:57:31.177Z,12.70
2023-08-16T21:59:58.355Z,11.73
2023-08-16T22:02:25.608Z,12.98
2023-08-16T22:04:52.560Z,12.40
2023-08-16T22:07:19.697Z,12.70
2023-08-16T22:09:46.636Z,12.30
2023-08-16T22:12:13.985Z,13.00
2023-08-16T22:14:41.064Z,11.55
2023-08-16T22:17:08.453Z,12.68
2023-08-16T22:19:35.790Z,12.77
2023-08-16T22:22:06.871Z,12.23
2023-08-16T22:24:33.778Z,12.32
2023-08-16T22:27:03.437Z,12.07
2023-08-16T22:29:30.483Z,11.80
2023-08-16T22:31:57.956Z,12.75
2023-08-16T22:34:24.825Z,11.88
2023-08-16T22:37:14.968Z,11.85
2023-08-16T22:39:41.973Z,11.70
2023-08-16T22:42:09.126Z,10.93
2023-08-16T22:44:36.510Z,11.80
2023-08-16T22:47:03.834Z,11.50
2023-08-16T22:49:30.777Z,11.65
2023-08-16T22:51:58.349Z,12.13
2023-08-16T22:54:25.281Z,11.57
2023-08-16T22:56:52.903Z,11.35
2023-08-16T22:59:22.180Z,12.18
2023-08-16T23:01:49.547Z,11.38
2023-08-16T23:04:31.425Z,11.57
2023-08-16T23:06:58.560Z,11.38
2023-08-16T23:09:25.797Z,11.73
2023-08-16T23:11:53.075Z,11.75
2023-08-16T23:14:19.992Z,11.57
2023-08-16T23:16:47.126Z,11.48
2023-08-16T23:19:14.181Z,12.05
2023-08-16T23:21:41.620Z,11.80
2023-08-16T23:24:08.984Z,12.13
2023-08-16T23:26:36.207Z,11.90
2023-08-16T23:29:03.469Z,11.63
2023-08-16T23:31:30.535Z,11.73
2023-08-16T23:33:57.496Z,12.65
2023-08-16T23:36:24.680Z,11.30
2023-08-16T23:38:51.517Z,11.98
2023-08-16T23:41:18.684Z,12.35
2023-08-16T23:43:45.857Z,12.45
2023-08-16T23:46:12.947Z,12.00
2023-08-16T23:48:41.795Z,12.75
2023-08-16T23:51:08.936Z,12.02
2023-08-16T23:53:35.877Z,11.90
2023-08-16T23:56:03.152Z,11.63
2023-08-16T23:58:30.581Z,11.95
